Time;durP1;ratioP1;P1;durP2;ratioP2;P2;SDS_P1;SDS_P2;PMS_P1;PMS_P2;Temp;Humidity;BMP_temperature;BMP_pressure;BME280_temperature;BME280_humidity;BME280_pressure;Samples;Min_cycle;Max_cycle;Signal;HPM_P1;HPM_P2
2022/12/22 03:27:07;;;;;;;47.30;25.62;;;;;;;2.60;100.00;97758.39;1768763;81;21001;-78
2022/12/22 03:29:33;;;;;;;40.98;22.10;;;;;;;2.52;100.00;97757.41;1768622;81;21035;-78
2022/12/22 03:32:00;;;;;;;30.40;19.32;;;;;;;2.45;100.00;97753.52;1745946;81;22013;-81
2022/12/22 03:34:27;;;;;;;31.68;19.27;;;;;;;2.22;100.00;97756.19;1768525;81;21039;-79
2022/12/22 03:36:54;;;;;;;33.40;19.30;;;;;;;2.08;100.00;97766.31;1745860;82;21017;-78
2022/12/22 03:39:21;;;;;;;34.65;19.60;;;;;;;2.08;100.00;97759.63;1768730;81;21043;-78
2022/12/22 03:47:19;;;;;;;34.63;19.87;;;;;;;1.90;100.00;97762.41;1745817;81;21013;-78
2022/12/22 03:49:45;;;;;;;36.33;21.02;;;;;;;1.90;100.00;97760.55;1768439;81;21044;-78
2022/12/22 03:52:12;;;;;;;36.38;21.05;;;;;;;1.84;100.00;97757.45;1745623;81;21088;-81
2022/12/22 03:54:39;;;;;;;41.63;24.02;;;;;;;1.70;100.00;97764.84;1768520;81;21075;-78
2022/12/22 03:57:06;;;;;;;45.70;24.77;;;;;;;1.71;100.00;97765.69;1719390;83;21022;-82
2022/12/22 03:59:33;;;;;;;35.68;20.72;;;;;;;1.69;100.00;97766.41;1731046;82;21536;-78
2022/12/22 04:02:00;;;;;;;36.13;22.17;;;;;;;1.79;100.00;97762.66;1730925;81;21531;-81
2022/12/22 04:04:27;;;;;;;38.30;22.42;;;;;;;1.81;100.00;97770.46;1730797;82;21086;-80
2022/12/22 04:06:54;;;;;;;35.05;19.60;;;;;;;1.75;100.00;97776.72;1731164;82;21078;-78
2022/12/22 04:09:21;;;;;;;36.48;21.37;;;;;;;1.78;100.00;97774.91;1730981;82;21050;-78
2022/12/22 04:14:34;;;;;;;27.93;17.35;;;;;;;1.91;100.00;97768.84;1730913;82;20995;-78
2022/12/22 04:17:03;;;;;;;32.45;17.77;;;;;;;1.93;100.00;97762.74;1731128;82;21015;-78
2022/12/22 04:19:30;;;;;;;28.02;17.00;;;;;;;2.00;100.00;97759.16;1702252;82;21035;-79
2022/12/22 04:21:57;;;;;;;27.02;16.07;;;;;;;1.94;100.00;97755.02;1754757;81;21551;-78
2022/12/22 04:24:24;;;;;;;30.35;17.00;;;;;;;1.95;100.00;97755.83;1761166;81;21055;-78
2022/12/22 04:26:51;;;;;;;30.02;18.57;;;;;;;2.02;100.00;97753.86;1761457;81;21031;-78
2022/12/22 04:29:18;;;;;;;35.17;21.02;;;;;;;2.02;100.00;97749.05;1761356;81;21070;-81
2022/12/22 04:31:44;;;;;;;29.85;18.05;;;;;;;2.09;100.00;97752.42;1761401;81;21051;-78
2022/12/22 04:34:11;;;;;;;35.08;20.25;;;;;;;2.07;100.00;97750.51;1761350;81;21018;-81
2022/12/22 04:36:38;;;;;;;22.95;13.50;;;;;;;2.03;100.00;97746.66;1761555;81;21003;-78
2022/12/22 04:39:05;;;;;;;26.62;14.58;;;;;;;2.16;100.00;97746.45;1731026;81;21543;-78
2022/12/22 04:41:32;;;;;;;28.67;17.07;;;;;;;2.23;100.00;97744.47;1761666;81;21078;-78
2022/12/22 04:43:59;;;;;;;28.95;16.93;;;;;;;2.17;100.00;97739.52;1761288;81;21007;-81
2022/12/22 04:46:26;;;;;;;34.40;19.57;;;;;;;2.20;100.00;97740.39;1761607;81;21451;-78
2022/12/22 04:48:53;;;;;;;32.60;20.70;;;;;;;2.37;100.00;97733.00;1761329;81;21007;-81
2022/12/22 04:51:20;;;;;;;51.55;34.33;;;;;;;2.59;100.00;97726.00;1761530;81;21008;-81
2022/12/22 04:53:46;;;;;;;31.25;18.55;;;;;;;2.75;100.00;97717.77;1761288;81;21302;-78
2022/12/22 04:56:13;;;;;;;23.57;14.45;;;;;;;2.79;100.00;97713.56;1761425;81;21023;-78
2022/12/22 04:58:40;;;;;;;22.13;12.73;;;;;;;2.82;100.00;97715.78;1761342;81;21059;-78
2022/12/22 05:01:10;;;;;;;20.72;11.15;;;;;;;2.90;100.00;97711.89;1761531;81;21463;-81
2022/12/22 05:03:37;;;;;;;22.20;13.18;;;;;;;2.89;100.00;97711.08;1760317;81;21031;-78
2022/12/22 05:06:05;;;;;;;21.30;12.95;;;;;;;2.88;100.00;97709.98;1761454;81;20998;-78
2022/12/22 05:08:32;;;;;;;23.60;14.07;;;;;;;2.87;100.00;97713.19;1761147;81;21003;-78
2022/12/22 05:10:58;;;;;;;23.90;14.60;;;;;;;2.82;100.00;97703.74;1761390;81;21051;-80
2022/12/22 05:13:25;;;;;;;20.77;14.63;;;;;;;2.77;100.00;97704.44;1761096;81;21675;-78
2022/12/22 05:15:52;;;;;;;23.83;16.45;;;;;;;2.72;100.00;97715.03;1761356;81;21023;-81
2022/12/22 05:18:19;;;;;;;27.87;16.82;;;;;;;2.73;100.00;97713.97;1761131;81;20995;-78
2022/12/22 05:20:46;;;;;;;28.07;16.60;;;;;;;2.68;100.00;97710.40;1752855;81;21027;-80
2022/12/22 05:23:13;;;;;;;27.37;17.20;;;;;;;2.64;100.00;97714.58;1730910;82;21519;-81
2022/12/22 05:25:40;;;;;;;25.95;16.60;;;;;;;2.55;100.00;97716.28;1731019;82;21023;-81
2022/12/22 05:28:07;;;;;;;32.75;18.37;;;;;;;2.43;100.00;97708.00;1730794;82;21012;-81
2022/12/22 05:30:33;;;;;;;31.23;19.92;;;;;;;2.31;100.00;97709.86;1730735;82;21019;-78
2022/12/22 05:33:00;;;;;;;33.73;18.77;;;;;;;2.25;100.00;97714.30;1730706;82;21483;-78
2022/12/22 05:35:27;;;;;;;42.40;21.97;;;;;;;2.15;100.00;97722.09;1730915;82;21102;-81
2022/12/22 05:37:54;;;;;;;36.60;19.20;;;;;;;2.12;100.00;97719.88;1730931;82;21130;-81
2022/12/22 05:40:21;;;;;;;36.00;19.73;;;;;;;2.09;100.00;97716.34;1731018;82;21474;-78
2022/12/22 05:42:48;;;;;;;35.00;19.30;;;;;;;2.05;100.00;97715.16;1730988;82;20991;-81
2022/12/22 05:45:17;;;;;;;35.60;19.48;;;;;;;2.08;100.00;97714.71;1731133;82;20971;-81
2022/12/22 05:47:45;;;;;;;;;;;;;;;2.11;100.00;97716.39;1733466;81;21462;-78
2022/12/22 05:50:13;;;;;;;47.83;25.20;;;;;;;2.06;100.00;97714.95;1731415;82;21663;-78
2022/12/22 05:52:40;;;;;;;44.03;22.27;;;;;;;1.98;100.00;97712.63;1730976;82;21027;-81
2022/12/22 05:55:08;;;;;;;44.03;24.98;;;;;;;1.96;100.00;97712.02;1734294;81;21566;-81
2022/12/22 05:57:35;;;;;;;43.95;26.20;;;;;;;1.89;100.00;97704.14;1744595;81;21039;-81
2022/12/22 06:00:08;;;;;;;48.28;25.97;;;;;;;1.89;100.00;97706.00;1748436;81;21024;-78
2022/12/22 06:02:35;;;;;;;43.55;25.90;;;;;;;1.91;100.00;97707.91;1761262;81;21011;-78
2022/12/22 06:05:02;;;;;;;53.95;29.23;;;;;;;1.94;100.00;97706.10;1734842;81;21010;-78
2022/12/22 06:07:29;;;;;;;53.98;27.85;;;;;;;1.98;100.00;97704.08;1732240;81;21047;-80
2022/12/22 06:09:56;;;;;;;50.63;25.30;;;;;;;2.00;100.00;97704.37;1748559;81;21037;-78
2022/12/22 06:12:22;;;;;;;50.00;29.55;;;;;;;1.95;100.00;97703.19;1766758;81;21053;-81
2022/12/22 06:14:49;;;;;;;54.20;26.00;;;;;;;1.92;100.00;97700.18;1732220;82;20985;-78
2022/12/22 06:17:16;;;;;;;49.53;27.40;;;;;;;1.99;100.00;97707.56;1751072;81;21164;-81
2022/12/22 06:19:43;;;;;;;54.48;32.25;;;;;;;1.96;100.00;97708.83;1731886;82;20991;-78
2022/12/22 06:22:11;;;;;;;56.23;32.45;;;;;;;1.95;100.00;97709.06;1756602;80;38506;-78
2022/12/22 06:24:38;;;;;;;49.63;29.57;;;;;;;1.99;100.00;97706.23;1753037;80;21453;-81
2022/12/22 06:27:05;;;;;;;52.40;29.52;;;;;;;2.03;100.00;97708.72;1759545;79;21055;-81
2022/12/22 06:29:31;;;;;;;52.13;29.23;;;;;;;2.07;100.00;97697.05;1733310;82;21066;-80
2022/12/22 06:31:58;;;;;;;54.25;33.10;;;;;;;2.08;100.00;97710.18;1733514;82;21000;-81
2022/12/22 06:34:26;;;;;;;41.90;24.35;;;;;;;2.09;100.00;97705.64;1769132;79;20965;-81
2022/12/22 06:36:53;;;;;;;33.00;20.57;;;;;;;2.12;100.00;97704.64;1795453;79;20992;-78
2022/12/22 06:39:20;;;;;;;36.00;20.65;;;;;;;2.30;100.00;97701.03;1795001;79;21071;-78
2022/12/22 06:44:32;;;;;;;25.75;15.03;;;;;;;2.75;100.00;97698.52;1795060;79;20992;-78
2022/12/22 06:46:59;;;;;;;25.62;15.90;;;;;;;3.02;100.00;97704.66;1795251;79;21446;-81
2022/12/22 06:49:26;;;;;;;20.88;14.05;;;;;;;3.15;100.00;97706.22;1795027;79;20977;-79
2022/12/22 06:51:53;;;;;;;32.95;24.30;;;;;;;3.24;100.00;97705.59;1775052;79;21008;-81
2022/12/22 06:54:20;;;;;;;44.90;32.88;;;;;;;3.30;100.00;97715.34;1733373;82;21056;-78
2022/12/22 06:56:46;;;;;;;30.08;18.52;;;;;;;3.36;100.00;97713.58;1733654;82;21023;-78
2022/12/22 06:59:13;;;;;;;40.92;23.00;;;;;;;3.42;100.00;97719.33;1733293;82;21011;-81
2022/12/22 07:01:41;;;;;;;34.08;20.12;;;;;;;3.28;100.00;97724.69;1734537;81;21012;-81
2022/12/22 07:04:09;;;;;;;35.78;21.15;;;;;;;3.10;100.00;97721.15;1753875;80;21031;-78
2022/12/22 07:06:36;;;;;;;29.05;19.95;;;;;;;3.00;100.00;97730.33;1792960;79;20981;-78
2022/12/22 07:09:03;;;;;;;35.08;20.82;;;;;;;2.95;100.00;97716.02;1746969;80;20976;-78
2022/12/22 07:11:30;;;;;;;38.33;23.80;;;;;;;2.88;100.00;97711.33;1737833;80;21007;-78
2022/12/22 07:13:57;;;;;;;100.25;55.08;;;;;;;2.75;100.00;97709.22;1753388;80;21513;-81
2022/12/22 07:16:23;;;;;;;33.75;23.52;;;;;;;2.72;100.00;97707.52;1754271;79;21066;-78
2022/12/22 07:18:50;;;;;;;34.78;23.30;;;;;;;2.76;100.00;97704.68;1744552;79;21067;-81
2022/12/22 07:21:17;;;;;;;38.20;23.22;;;;;;;2.77;100.00;97695.07;1745376;79;21451;-77
2022/12/22 07:23:44;;;;;;;30.48;16.90;;;;;;;2.78;100.00;97701.23;1743466;80;21096;-81
2022/12/22 07:26:11;;;;;;;31.48;17.05;;;;;;;2.73;100.00;97685.06;1746297;81;21031;-81
2022/12/22 07:28:39;;;;;;;59.38;30.77;;;;;;;2.82;100.00;97683.14;1741512;79;22319;-78
2022/12/22 07:31:07;;;;;;;151.60;89.83;;;;;;;2.86;100.00;97674.63;1745199;81;21440;-78
2022/12/22 07:33:34;;;;;;;41.08;27.42;;;;;;;2.95;100.00;97682.03;1746511;81;21034;-81
2022/12/22 07:36:09;;;;;;;27.87;19.35;;;;;;;3.04;100.00;97683.80;1745112;79;20964;-81
2022/12/22 07:38:39;;;;;;;47.43;38.58;;;;;;;3.15;100.00;97683.45;1762584;81;21533;-81
2022/12/22 07:42:43;;;;;;;30.70;21.68;;;;;;;3.20;100.00;97681.70;1743320;81;20978;-80
2022/12/22 07:43:35;;;;;;;43.15;29.77;;;;;;;3.29;100.00;97682.92;1738060;81;21050;-78
2022/12/22 07:46:05;;;;;;;31.12;19.85;;;;;;;3.38;100.00;97685.50;1740476;79;21222;-81
2022/12/22 07:51:17;;;;;;;19.90;14.50;;;;;;;3.48;100.00;97683.52;1743296;81;21324;-81
2022/12/22 07:53:44;;;;;;;22.20;13.25;;;;;;;3.50;100.00;97685.42;1740957;80;21688;-81
2022/12/22 07:56:11;;;;;;;22.50;12.65;;;;;;;3.49;100.00;97678.97;1753740;81;21492;-78
2022/12/22 07:58:38;;;;;;;20.10;14.05;;;;;;;3.44;100.00;97675.69;1752274;79;20948;-81
2022/12/22 08:01:04;;;;;;;56.98;44.15;;;;;;;3.38;100.00;97673.44;1748474;79;21391;-78
2022/12/22 08:03:31;;;;;;;25.50;16.30;;;;;;;3.42;100.00;97672.95;1749312;79;21450;-78
2022/12/22 08:05:58;;;;;;;42.45;22.87;;;;;;;3.43;100.00;97667.91;1757054;79;21515;-81
2022/12/22 08:08:25;;;;;;;23.70;15.08;;;;;;;3.48;100.00;97670.13;1746414;79;21451;-81
2022/12/22 08:10:52;;;;;;;28.02;19.92;;;;;;;3.45;100.00;97663.11;1747005;81;21074;-78
2022/12/22 08:13:19;;;;;;;27.52;20.17;;;;;;;3.45;100.00;97662.58;1745855;79;21153;-81
2022/12/22 08:15:46;;;;;;;33.35;20.77;;;;;;;3.48;100.00;97654.05;1761118;79;21056;-81
2022/12/22 08:18:13;;;;;;;29.27;20.60;;;;;;;3.53;100.00;97654.14;1758905;81;21852;-81
2022/12/22 08:20:40;;;;;;;36.00;21.30;;;;;;;3.63;100.00;97648.94;1741691;81;21015;-78
2022/12/22 08:23:06;;;;;;;45.03;25.43;;;;;;;3.73;100.00;97655.52;1746436;79;21043;-81
2022/12/22 08:25:33;;;;;;;51.88;32.17;;;;;;;3.84;100.00;97663.98;1747669;81;21054;-81
2022/12/22 08:28:00;;;;;;;55.80;32.28;;;;;;;3.89;100.00;97658.19;1745327;81;21108;-81
2022/12/22 08:30:27;;;;;;;54.60;32.08;;;;;;;4.03;100.00;97661.34;1751193;80;21665;-78
2022/12/22 08:32:54;;;;;;;51.05;29.92;;;;;;;4.17;100.00;97653.22;1761434;80;21036;-78
2022/12/22 08:35:21;;;;;;;45.55;31.42;;;;;;;4.35;100.00;97649.96;1749708;80;21091;-78
2022/12/22 08:37:48;;;;;;;55.70;35.17;;;;;;;4.36;100.00;97654.27;1746465;80;21033;-78
2022/12/22 08:40:23;;;;;;;41.28;25.20;;;;;;;4.40;100.00;97644.14;1737745;81;22111;-83
2022/12/22 08:42:53;;;;;;;42.10;27.70;;;;;;;4.57;100.00;97639.25;1732520;81;21052;-81
2022/12/22 08:45:20;;;;;;;34.45;21.27;;;;;;;4.53;100.00;97648.34;1749463;81;21431;-81
2022/12/22 08:47:47;;;;;;;25.50;16.12;;;;;;;4.55;100.00;97644.88;1753658;79;21028;-78
2022/12/22 08:50:15;;;;;;;29.42;18.48;;;;;;;4.53;100.00;97630.37;1746528;82;21069;-81
2022/12/22 08:52:42;;;;;;;23.05;15.75;;;;;;;4.65;100.00;97632.10;1723486;81;23341;-78
2022/12/22 08:55:09;;;;;;;35.38;21.93;;;;;;;4.74;100.00;97633.28;1737811;81;20996;-81
2022/12/22 08:57:36;;;;;;;25.37;16.17;;;;;;;4.80;100.00;97634.97;1749485;81;20909;-78
2022/12/22 09:00:07;;;;;;;28.77;19.17;;;;;;;4.68;100.00;97627.03;1740338;80;21533;-78
2022/12/22 09:02:34;;;;;;;31.70;18.62;;;;;;;4.70;100.00;97625.44;1742613;80;21323;-81
2022/12/22 09:05:01;;;;;;;34.27;22.40;;;;;;;4.76;100.00;97623.91;1743126;80;21151;-78
2022/12/22 09:07:28;;;;;;;31.55;20.68;;;;;;;4.69;100.00;97623.28;1751175;80;21547;-81
2022/12/22 09:09:57;;;;;;;35.45;20.43;;;;;;;4.69;100.00;97621.13;1719815;81;21102;-81
2022/12/22 09:12:24;;;;;;;31.05;18.25;;;;;;;4.71;100.00;97623.05;1741149;80;21584;-78
2022/12/22 09:14:51;;;;;;;43.05;26.17;;;;;;;4.54;100.00;97616.42;1754318;80;21128;-78
2022/12/22 09:17:18;;;;;;;52.53;27.35;;;;;;;4.62;100.00;97620.54;1760032;80;21118;-78
2022/12/22 09:19:44;;;;;;;49.70;28.42;;;;;;;4.62;100.00;97618.66;1736549;81;21558;-81
2022/12/22 09:22:11;;;;;;;48.50;28.20;;;;;;;4.69;100.00;97609.05;1740212;80;21034;-78
2022/12/22 09:24:38;;;;;;;50.60;29.87;;;;;;;4.79;100.00;97611.88;1739777;80;21051;-78
2022/12/22 09:27:07;;;;;;;52.10;33.13;;;;;;;4.86;100.00;97599.57;1740078;80;21342;-78
2022/12/22 09:29:35;;;;;;;47.62;28.20;;;;;;;4.95;100.00;97592.14;1739737;80;21575;-78
2022/12/22 09:32:03;;;;;;;44.88;28.45;;;;;;;5.05;100.00;97586.89;1743099;81;21634;-81
2022/12/22 09:34:30;;;;;;;53.45;29.60;;;;;;;5.23;100.00;97585.70;1744611;80;21060;-78
2022/12/22 09:36:57;;;;;;;55.40;29.52;;;;;;;5.33;100.00;97583.64;1750093;80;20996;-78
2022/12/22 09:39:24;;;;;;;55.40;31.23;;;;;;;5.45;100.00;97586.14;1757158;80;21461;-78
2022/12/22 09:41:54;;;;;;;63.40;31.42;;;;;;;5.59;100.00;97587.33;1741955;81;21425;-82
2022/12/22 09:44:37;;;;;;;57.95;34.78;;;;;;;5.74;100.00;97575.88;1764135;79;21016;-81
2022/12/22 09:47:12;;;;;;;60.05;36.55;;;;;;;5.92;100.00;97569.56;1758265;79;21134;-78
2022/12/22 09:49:39;;;;;;;65.85;39.33;;;;;;;6.04;100.00;97565.85;1709604;79;21103;-78
2022/12/22 09:52:06;;;;;;;63.90;39.55;;;;;;;6.08;100.00;97554.86;1754278;79;21084;-78
2022/12/22 09:54:33;;;;;;;61.58;38.48;;;;;;;6.14;100.00;97556.48;1754583;79;21079;-78
2022/12/22 09:56:59;;;;;;;58.48;35.45;;;;;;;6.25;100.00;97550.63;1762485;79;21658;-78
2022/12/22 09:59:27;;;;;;;55.30;33.18;;;;;;;6.35;100.00;97544.75;1678296;81;21098;-78
2022/12/22 10:02:12;;;;;;;55.43;32.10;;;;;;;6.39;100.00;97538.29;1742040;80;20983;-78
2022/12/22 10:04:59;;;;;;;61.15;36.50;;;;;;;6.44;100.00;97535.62;1740190;81;21050;-78
2022/12/22 10:07:34;;;;;;;65.03;35.63;;;;;;;6.43;100.00;97529.97;1743917;81;21054;-78
2022/12/22 10:10:26;;;;;;;70.80;37.63;;;;;;;6.37;100.00;97527.79;1742503;81;21496;-81
2022/12/22 10:12:55;;;;;;;60.25;35.50;;;;;;;6.38;100.00;97519.18;1742255;79;21078;-78
2022/12/22 10:15:22;;;;;;;52.03;32.95;;;;;;;6.33;100.00;97513.80;1740817;79;21424;-81
2022/12/22 10:17:50;;;;;;;50.48;32.48;;;;;;;6.34;100.00;97515.41;1740805;79;21543;-78
2022/12/22 10:20:25;;;;;;;60.65;36.68;;;;;;;6.28;100.00;97506.50;1742014;79;21408;-81
2022/12/22 10:22:57;;;;;;;71.02;39.85;;;;;;;6.26;100.00;97503.81;1724785;79;21689;-81
2022/12/22 10:25:37;;;;;;;80.80;43.58;;;;;;;6.26;100.00;97507.85;1740824;79;21028;-78
2022/12/22 10:28:14;;;;;;;87.33;45.12;;;;;;;6.22;100.00;97497.59;1741780;79;21687;-78
2022/12/22 10:30:41;;;;;;;71.02;41.70;;;;;;;6.24;100.00;97491.98;1741095;79;21081;-81
2022/12/22 10:33:14;;;;;;;66.72;39.65;;;;;;;6.28;100.00;97494.39;1748809;79;21722;-81
2022/12/22 10:35:53;;;;;;;75.52;41.08;;;;;;;6.25;100.00;97490.09;1718078;79;21519;-81
2022/12/22 10:38:33;;;;;;;99.32;56.77;;;;;;;6.22;100.00;97481.99;1742234;79;21000;-78
2022/12/22 10:41:21;;;;;;;80.85;47.90;;;;;;;6.15;100.00;97486.30;1738294;79;21035;-78
2022/12/22 10:43:51;;;;;;;111.52;57.85;;;;;;;6.09;100.00;97481.97;1739665;81;21117;-78
2022/12/22 10:46:31;;;;;;;109.42;60.88;;;;;;;6.05;100.00;97484.08;1742558;79;20975;-81
2022/12/22 10:49:23;;;;;;;96.42;56.48;;;;;;;5.99;100.00;97484.63;1742622;79;21220;-78
2022/12/22 10:52:15;;;;;;;65.05;37.80;;;;;;;5.95;100.00;97478.13;1741859;79;21593;-78
2022/12/22 10:54:43;;;;;;;103.72;49.13;;;;;;;5.97;100.00;97469.80;1749462;81;21090;-81
2022/12/22 10:57:19;;;;;;;82.88;49.77;;;;;;;5.94;100.00;97457.16;1709794;82;20938;-81
2022/12/22 10:59:55;;;;;;;99.70;58.60;;;;;;;6.00;100.00;97457.19;1731578;81;20969;-82
2022/12/22 11:02:36;;;;;;;93.00;55.63;;;;;;;6.01;100.00;97444.81;1744856;81;20975;-81
2022/12/22 11:05:10;;;;;;;78.15;43.15;;;;;;;6.06;100.00;97446.16;1774628;80;20955;-78
2022/12/22 11:07:42;;;;;;;78.05;45.38;;;;;;;6.10;100.00;97435.70;1752354;79;21464;-79
2022/12/22 11:10:46;;;;;;;98.00;52.45;;;;;;;6.17;100.00;97430.34;1754432;80;21080;-81
2022/12/22 11:13:40;;;;;;;83.17;44.80;;;;;;;6.20;100.00;97435.18;1745757;80;21134;-78
2022/12/22 11:16:50;;;;;;;65.10;37.17;;;;;;;6.19;100.00;97424.15;1732230;81;21117;-78
2022/12/22 11:19:56;;;;;;;61.58;38.48;;;;;;;6.30;100.00;97426.31;1731592;81;21012;-81
2022/12/22 11:22:49;;;;;;;64.67;37.53;;;;;;;6.32;100.00;97422.81;1760255;80;21051;-81
2022/12/22 11:25:27;;;;;;;80.25;41.80;;;;;;;6.36;100.00;97418.53;1741336;81;21043;-81
2022/12/22 11:28:31;;;;;;;59.73;34.37;;;;;;;6.33;100.00;97415.05;1744431;80;20997;-82
2022/12/22 11:31:33;;;;;;;53.45;28.20;;;;;;;6.39;100.00;97418.53;1758453;79;21523;-78
2022/12/22 11:34:34;;;;;;;46.02;28.00;;;;;;;6.47;100.00;97411.27;1739950;80;20987;-81
2022/12/22 11:37:48;;;;;;;64.80;37.40;;;;;;;6.62;100.00;97405.91;1747114;80;21071;-82
2022/12/22 11:40:34;;;;;;;67.67;37.67;;;;;;;6.71;100.00;97417.75;1735985;81;21492;-78
2022/12/22 11:43:12;;;;;;;46.77;28.75;;;;;;;6.82;100.00;97421.78;1741462;80;20950;-81
2022/12/22 11:45:56;;;;;;;61.15;32.78;;;;;;;6.96;100.00;97424.22;1740543;81;21686;-78
2022/12/22 11:49:12;;;;;;;48.58;29.45;;;;;;;7.09;100.00;97419.61;1741284;81;21007;-81
2022/12/22 11:52:02;;;;;;;62.75;34.25;;;;;;;7.23;100.00;97413.94;1737462;80;21015;-81
2022/12/22 11:54:44;;;;;;;58.20;34.95;;;;;;;7.44;100.00;97401.23;1740229;81;21849;-82
2022/12/22 11:57:45;;;;;;;61.05;36.03;;;;;;;7.44;100.00;97401.23;1751332;80;21117;-82
2022/12/22 12:00:17;;;;;;;62.27;33.80;;;;;;;7.60;100.00;97412.75;1740077;81;21055;-82
2022/12/22 12:03:05;;;;;;;50.30;33.88;;;;;;;7.66;100.00;97396.83;1739670;81;21478;-78
2022/12/22 12:05:49;;;;;;;46.13;29.32;;;;;;;7.66;100.00;97396.83;1750736;79;21053;-78
2022/12/22 12:08:47;;;;;;;43.10;26.65;;;;;;;7.64;100.00;97383.62;1761145;79;20940;-79
2022/12/22 12:11:44;;;;;;;54.33;34.75;;;;;;;7.59;100.00;97384.17;1760866;79;20972;-81
2022/12/22 12:14:33;;;;;;;53.55;32.65;;;;;;;7.59;100.00;97385.53;1744411;80;21609;-79
2022/12/22 12:17:20;;;;;;;69.85;39.23;;;;;;;7.49;100.00;97382.33;1739280;80;20995;-78
2022/12/22 12:20:25;;;;;;;68.90;41.45;;;;;;;7.41;100.00;97378.05;1754251;80;21038;-82
2022/12/22 12:23:06;;;;;;;75.57;42.38;;;;;;;7.41;100.00;97384.23;1738192;81;21051;-81
2022/12/22 12:25:41;;;;;;;84.13;45.60;;;;;;;7.40;100.00;97374.55;1745667;80;22279;-82
2022/12/22 12:28:28;;;;;;;79.47;45.50;;;;;;;7.25;100.00;97370.00;1746084;80;21009;-81
2022/12/22 12:30:57;;;;;;;87.82;46.00;;;;;;;7.15;100.00;97368.69;1741269;80;21009;-78
2022/12/22 12:33:38;;;;;;;87.00;48.73;;;;;;;6.93;100.00;97372.24;1747947;79;21511;-79
2022/12/22 12:36:15;;;;;;;115.57;57.83;;;;;;;6.87;100.00;97365.23;1738303;80;20986;-81
2022/12/22 12:39:30;;;;;;;107.50;59.18;;;;;;;6.78;100.00;97370.37;1740832;79;21350;-78
2022/12/22 12:42:38;;;;;;;78.42;45.17;;;;;;;6.73;100.00;97372.51;1744934;80;21763;-82
2022/12/22 12:45:40;;;;;;;78.67;50.03;;;;;;;6.76;100.00;97371.98;1740125;80;21060;-81
2022/12/22 12:48:28;;;;;;;87.67;48.90;;;;;;;6.75;100.00;97360.95;1744217;80;21472;-78
2022/12/22 12:50:58;;;;;;;79.82;43.90;;;;;;;6.82;100.00;97357.96;1753667;80;21062;-78
2022/12/22 12:53:26;;;;;;;71.35;42.17;;;;;;;6.89;100.00;97355.00;1750140;80;21115;-82
2022/12/22 12:56:03;;;;;;;76.27;40.57;;;;;;;6.88;100.00;97354.73;1752529;80;21491;-81
2022/12/22 12:58:46;;;;;;;108.10;55.55;;;;;;;6.78;100.00;97336.70;1707034;81;21093;-82
2022/12/22 13:01:31;;;;;;;122.58;74.25;;;;;;;6.78;100.00;97336.70;1735548;80;21011;-79
2022/12/22 13:03:57;;;;;;;99.80;52.93;;;;;;;6.88;100.00;97354.73;1747517;80;21583;-78
2022/12/22 13:06:49;;;;;;;70.90;40.85;;;;;;;6.88;100.00;97357.42;1746500;80;21032;-78
2022/12/22 13:09:19;;;;;;;58.23;32.98;;;;;;;6.89;100.00;97359.84;1755344;81;21074;-82
2022/12/22 13:11:48;;;;;;;56.60;34.92;;;;;;;6.98;100.00;97358.75;1734795;81;21020;-81
2022/12/22 13:14:57;;;;;;;63.68;37.65;;;;;;;7.09;100.00;97365.72;1740977;80;21043;-82
2022/12/22 13:17:48;;;;;;;70.62;38.23;;;;;;;7.04;100.00;97358.47;1749996;80;21003;-82
2022/12/22 13:20:32;;;;;;;68.67;43.30;;;;;;;7.09;100.00;97349.55;1747937;80;21511;-82
2022/12/22 13:23:01;;;;;;;122.42;60.38;;;;;;;7.08;100.00;97354.68;1745490;80;21048;-78
2022/12/22 13:25:54;;;;;;;130.75;69.27;;;;;;;6.90;100.00;97349.33;1718557;80;21031;-81
2022/12/22 13:28:22;;;;;;;139.82;74.35;;;;;;;6.86;100.00;97350.16;1718186;81;21078;-78
2022/12/22 13:30:54;;;;;;;73.42;44.40;;;;;;;6.84;100.00;97355.83;1716078;81;21105;-81
2022/12/22 13:33:23;;;;;;;83.20;46.25;;;;;;;6.72;100.00;97348.02;1728766;81;21173;-82
2022/12/22 13:35:50;;;;;;;;;;;;;;;6.61;100.00;97342.91;1753878;80;21716;-81
2022/12/22 13:38:34;;;;;;;78.72;42.58;;;;;;;6.48;100.00;97332.14;1743155;80;20160;-78
2022/12/22 13:41:19;;;;;;;81.17;45.00;;;;;;;6.28;100.00;97329.45;1750951;81;22069;-78
2022/12/22 13:43:51;;;;;;;49.67;30.12;;;;;;;6.14;100.00;97316.52;1741840;80;21582;-78
2022/12/22 13:46:17;;;;;;;31.80;17.75;;;;;;;6.04;100.00;97323.78;1753599;80;21029;-81
2022/12/22 13:48:49;;;;;;;34.53;18.52;;;;;;;5.89;100.00;97310.55;1749439;81;21753;-82
2022/12/22 13:51:24;;;;;;;44.75;28.35;;;;;;;5.80;100.00;97309.98;1745293;80;21086;-78
2022/12/22 13:53:56;;;;;;;58.15;36.85;;;;;;;5.82;100.00;97325.34;1741209;80;21114;-82
2022/12/22 13:56:25;;;;;;;60.25;36.68;;;;;;;5.76;100.00;97319.67;1750974;80;21114;-82
2022/12/22 13:58:57;;;;;;;45.23;28.05;;;;;;;5.64;100.00;97322.61;1730284;80;21101;-81
2022/12/22 14:01:24;;;;;;;47.33;26.85;;;;;;;5.58;100.00;97331.19;1744124;80;21109;-82
2022/12/22 14:04:01;;;;;;;42.73;25.62;;;;;;;5.34;100.00;97328.14;1741411;81;21027;-82
2022/12/22 14:06:37;;;;;;;34.90;21.15;;;;;;;5.33;100.00;97327.06;1740397;81;20914;-79
2022/12/22 14:09:15;;;;;;;42.73;23.70;;;;;;;5.32;100.00;97328.94;1740014;81;21459;-78
2022/12/22 14:11:44;;;;;;;37.95;23.85;;;;;;;5.30;100.00;97331.63;1733013;81;21026;-79
2022/12/22 14:14:24;;;;;;;76.95;44.08;;;;;;;5.30;100.00;97333.78;1737858;81;21013;-78
2022/12/22 14:16:53;;;;;;;147.90;73.20;;;;;;;5.27;100.00;97334.81;1714957;81;20948;-81
2022/12/22 14:19:20;;;;;;;134.78;75.28;;;;;;;5.23;100.00;97329.70;1749247;81;25716;-82
2022/12/22 14:21:51;;;;;;;123.25;72.62;;;;;;;5.18;100.00;97328.33;1749590;81;20948;-81
2022/12/22 14:24:22;;;;;;;128.12;73.07;;;;;;;5.14;100.00;97324.03;1730516;82;20972;-81
2022/12/22 14:26:51;;;;;;;123.70;73.85;;;;;;;5.12;100.00;97334.73;1738315;81;21494;-81
2022/12/22 14:29:21;;;;;;;115.40;65.32;;;;;;;5.04;100.00;97336.04;1724912;81;21451;-79
2022/12/22 14:31:56;;;;;;;81.82;49.63;;;;;;;4.98;100.00;97333.87;1737399;82;21075;-78
2022/12/22 14:34:29;;;;;;;69.65;40.28;;;;;;;4.92;100.00;97335.45;1711167;80;21582;-78
2022/12/22 14:36:56;;;;;;;70.05;41.10;;;;;;;4.81;100.00;97331.90;1748601;81;21007;-81
2022/12/22 14:39:31;;;;;;;55.55;30.80;;;;;;;4.72;100.00;97345.00;1736645;81;21231;-82
2022/12/22 14:42:05;;;;;;;139.20;66.85;;;;;;;4.65;100.00;97347.63;1747847;80;21005;-82
2022/12/22 14:44:44;;;;;;;59.20;31.95;;;;;;;4.64;100.00;97348.69;1746797;80;21016;-81
2022/12/22 14:47:14;;;;;;;;;;;;;;;4.60;100.00;97339.52;1764997;80;21054;-81
2022/12/22 14:49:56;;;;;;;57.45;29.37;;;;;;;4.50;100.00;97337.58;1759778;80;20175;-82
2022/12/22 14:52:32;;;;;;;61.28;32.30;;;;;;;4.29;100.00;97337.16;1718316;82;21429;-78
2022/12/22 14:54:58;;;;;;;51.90;30.62;;;;;;;4.17;100.00;97323.36;1758473;81;20981;-82
2022/12/22 14:57:36;;;;;;;55.08;27.90;;;;;;;4.08;100.00;97321.41;1757173;81;21071;-81
2022/12/22 15:00:10;;;;;;;70.50;37.25;;;;;;;4.06;100.00;97335.07;1761045;81;20991;-79
2022/12/22 15:02:39;;;;;;;228.52;126.10;;;;;;;3.99;100.00;97342.50;1750765;81;20991;-78
2022/12/22 15:05:17;;;;;;;232.22;128.95;;;;;;;3.95;100.00;97342.75;1756699;81;21579;-81
2022/12/22 15:07:47;;;;;;;166.65;96.30;;;;;;;3.80;100.00;97329.19;1737487;81;21086;-82
2022/12/22 15:10:14;;;;;;;215.00;142.50;;;;;;;3.71;100.00;97341.42;1736657;80;21559;-78
2022/12/22 15:12:41;;;;;;;216.48;131.65;;;;;;;3.70;100.00;97339.28;1759623;81;21082;-82
2022/12/22 15:15:18;;;;;;;130.63;83.72;;;;;;;3.69;100.00;97344.36;1760014;81;20991;-79
2022/12/22 15:17:47;;;;;;;172.15;99.40;;;;;;;3.61;100.00;97341.59;1778042;80;21533;-82
2022/12/22 15:20:22;;;;;;;;;;;;;;;3.62;100.00;97341.87;1734238;81;21047;-82
2022/12/22 15:22:48;;;;;;;247.93;135.18;;;;;;;3.65;100.00;97346.72;1741135;81;20975;-78